sensor_id;sensor_type;location;lat;lon;timestamp;P1;durP1;ratioP1;P2;durP2;ratioP2
33104;SDS011;19476;51.448;6.674;2022-09-09T00:08:34;1.65;;;0.40;;
33104;SDS011;19476;51.448;6.674;2022-09-09T00:11:16;1.25;;;0.38;;
33104;SDS011;19476;51.448;6.674;2022-09-09T00:13:52;0.45;;;0.10;;
33104;SDS011;19476;51.448;6.674;2022-09-09T00:16:29;0.55;;;0.30;;
33104;SDS011;19476;51.448;6.674;2022-09-09T00:19:22;0.47;;;0.20;;
33104;SDS011;19476;51.448;6.674;2022-09-09T00:22:00;1.20;;;0.30;;
33104;SDS011;19476;51.448;6.674;2022-09-09T00:24:32;1.55;;;0.40;;
33104;SDS011;19476;51.448;6.674;2022-09-09T00:27:08;0.63;;;0.20;;
33104;SDS011;19476;51.448;6.674;2022-09-09T00:29:58;2.17;;;0.30;;
33104;SDS011;19476;51.448;6.674;2022-09-09T00:32:39;1.05;;;0.50;;
33104;SDS011;19476;51.448;6.674;2022-09-09T00:35:23;1.45;;;0.40;;
33104;SDS011;19476;51.448;6.674;2022-09-09T00:37:56;1.85;;;0.20;;
33104;SDS011;19476;51.448;6.674;2022-09-09T00:40:34;1.88;;;0.30;;
33104;SDS011;19476;51.448;6.674;2022-09-09T00:49:14;1.35;;;0.40;;
33104;SDS011;19476;51.448;6.674;2022-09-09T00:55:04;1.75;;;0.32;;
33104;SDS011;19476;51.448;6.674;2022-09-09T00:58:06;1.52;;;0.30;;
33104;SDS011;19476;51.448;6.674;2022-09-09T01:09:30;0.38;;;0.20;;
33104;SDS011;19476;51.448;6.674;2022-09-09T01:12:14;2.00;;;0.30;;
33104;SDS011;19476;51.448;6.674;2022-09-09T01:14:54;1.02;;;0.30;;
33104;SDS011;19476;51.448;6.674;2022-09-09T01:28:48;2.58;;;0.50;;
33104;SDS011;19476;51.448;6.674;2022-09-09T01:31:36;3.70;;;0.60;;
33104;SDS011;19476;51.448;6.674;2022-09-09T01:34:13;1.15;;;0.60;;
33104;SDS011;19476;51.448;6.674;2022-09-09T01:39:31;1.75;;;0.68;;
33104;SDS011;19476;51.448;6.674;2022-09-09T01:42:00;2.15;;;0.63;;
33104;SDS011;19476;51.448;6.674;2022-09-09T01:44:27;2.00;;;0.90;;
33104;SDS011;19476;51.448;6.674;2022-09-09T01:46:56;1.88;;;0.80;;
33104;SDS011;19476;51.448;6.674;2022-09-09T01:49:30;1.67;;;0.80;;
33104;SDS011;19476;51.448;6.674;2022-09-09T01:51:57;2.40;;;0.60;;
33104;SDS011;19476;51.448;6.674;2022-09-09T01:54:26;1.10;;;0.70;;
33104;SDS011;19476;51.448;6.674;2022-09-09T02:08:55;1.27;;;0.70;;
33104;SDS011;19476;51.448;6.674;2022-09-09T02:11:23;2.15;;;0.82;;
33104;SDS011;19476;51.448;6.674;2022-09-09T02:13:56;1.25;;;0.80;;
33104;SDS011;19476;51.448;6.674;2022-09-09T02:16:43;2.72;;;1.00;;
33104;SDS011;19476;51.448;6.674;2022-09-09T02:21:59;1.52;;;0.88;;
33104;SDS011;19476;51.448;6.674;2022-09-09T02:24:30;2.40;;;0.93;;
33104;SDS011;19476;51.448;6.674;2022-09-09T02:26:59;1.77;;;0.85;;
33104;SDS011;19476;51.448;6.674;2022-09-09T02:31:59;0.93;;;0.60;;
33104;SDS011;19476;51.448;6.674;2022-09-09T02:34:29;2.15;;;0.93;;
33104;SDS011;19476;51.448;6.674;2022-09-09T02:37:28;2.00;;;0.63;;
33104;SDS011;19476;51.448;6.674;2022-09-09T02:39:53;2.03;;;0.65;;
33104;SDS011;19476;51.448;6.674;2022-09-09T02:42:40;2.45;;;0.88;;
33104;SDS011;19476;51.448;6.674;2022-09-09T02:45:07;2.05;;;0.60;;
33104;SDS011;19476;51.448;6.674;2022-09-09T02:47:38;4.88;;;0.70;;
33104;SDS011;19476;51.448;6.674;2022-09-09T02:50:25;2.80;;;0.73;;
33104;SDS011;19476;51.448;6.674;2022-09-09T02:53:16;1.67;;;0.55;;
33104;SDS011;19476;51.448;6.674;2022-09-09T02:58:29;1.05;;;0.57;;
33104;SDS011;19476;51.448;6.674;2022-09-09T03:01:02;1.33;;;0.50;;
33104;SDS011;19476;51.448;6.674;2022-09-09T03:03:34;3.50;;;0.85;;
33104;SDS011;19476;51.448;6.674;2022-09-09T03:06:02;3.22;;;0.70;;
33104;SDS011;19476;51.448;6.674;2022-09-09T03:08:28;1.65;;;0.70;;
33104;SDS011;19476;51.448;6.674;2022-09-09T03:13:40;2.08;;;0.60;;
33104;SDS011;19476;51.448;6.674;2022-09-09T03:16:09;1.60;;;0.60;;
33104;SDS011;19476;51.448;6.674;2022-09-09T03:18:35;4.38;;;0.70;;
33104;SDS011;19476;51.448;6.674;2022-09-09T03:21:01;1.98;;;0.40;;
33104;SDS011;19476;51.448;6.674;2022-09-09T03:23:27;1.45;;;0.50;;
33104;SDS011;19476;51.448;6.674;2022-09-09T03:26:09;3.08;;;0.65;;
33104;SDS011;19476;51.448;6.674;2022-09-09T03:28:59;1.42;;;0.55;;
33104;SDS011;19476;51.448;6.674;2022-09-09T03:31:31;3.00;;;0.70;;
33104;SDS011;19476;51.448;6.674;2022-09-09T03:34:01;3.13;;;0.60;;
33104;SDS011;19476;51.448;6.674;2022-09-09T03:36:30;1.35;;;0.60;;
33104;SDS011;19476;51.448;6.674;2022-09-09T03:39:18;1.00;;;0.45;;
33104;SDS011;19476;51.448;6.674;2022-09-09T09:19:23;1.88;;;0.52;;
33104;SDS011;19476;51.448;6.674;2022-09-09T09:29:13;3.78;;;0.77;;
33104;SDS011;19476;51.448;6.674;2022-09-09T10:45:23;4.85;;;1.15;;
33104;SDS011;19476;51.448;6.674;2022-09-09T12:28:17;3.45;;;0.45;;
33104;SDS011;19476;51.448;6.674;2022-09-09T12:30:50;0.40;;;0.30;;
33104;SDS011;19476;51.448;6.674;2022-09-09T12:33:36;1.48;;;0.30;;
33104;SDS011;19476;51.448;6.674;2022-09-09T12:36:14;2.45;;;0.50;;
33104;SDS011;19476;51.448;6.674;2022-09-09T12:38:45;2.05;;;0.50;;
33104;SDS011;19476;51.448;6.674;2022-09-09T12:41:21;1.45;;;0.38;;
33104;SDS011;19476;51.448;6.674;2022-09-09T12:44:02;2.83;;;0.40;;
33104;SDS011;19476;51.448;6.674;2022-09-09T12:51:52;2.03;;;0.55;;
33104;SDS011;19476;51.448;6.674;2022-09-09T12:54:42;1.42;;;0.40;;
33104;SDS011;19476;51.448;6.674;2022-09-09T12:57:12;2.13;;;0.60;;
33104;SDS011;19476;51.448;6.674;2022-09-09T12:59:41;2.25;;;0.68;;
33104;SDS011;19476;51.448;6.674;2022-09-09T13:02:26;3.67;;;0.70;;
33104;SDS011;19476;51.448;6.674;2022-09-09T13:04:53;2.05;;;0.50;;
33104;SDS011;19476;51.448;6.674;2022-09-09T13:07:21;1.40;;;0.40;;
33104;SDS011;19476;51.448;6.674;2022-09-09T13:58:14;1.15;;;0.50;;
33104;SDS011;19476;51.448;6.674;2022-09-09T14:00:54;3.08;;;0.65;;
33104;SDS011;19476;51.448;6.674;2022-09-09T14:03:27;1.20;;;0.50;;
33104;SDS011;19476;51.448;6.674;2022-09-09T14:05:53;1.50;;;0.52;;
33104;SDS011;19476;51.448;6.674;2022-09-09T14:08:25;1.73;;;0.60;;
33104;SDS011;19476;51.448;6.674;2022-09-09T14:10:58;2.15;;;0.70;;
33104;SDS011;19476;51.448;6.674;2022-09-09T14:13:24;3.15;;;0.50;;
33104;SDS011;19476;51.448;6.674;2022-09-09T14:15:50;1.95;;;0.50;;
33104;SDS011;19476;51.448;6.674;2022-09-09T14:18:20;2.40;;;0.60;;
33104;SDS011;19476;51.448;6.674;2022-09-09T14:20:48;0.88;;;0.50;;
33104;SDS011;19476;51.448;6.674;2022-09-09T14:23:15;2.30;;;0.75;;
33104;SDS011;19476;51.448;6.674;2022-09-09T14:25:42;1.73;;;0.60;;
33104;SDS011;19476;51.448;6.674;2022-09-09T14:31:06;2.15;;;0.68;;
33104;SDS011;19476;51.448;6.674;2022-09-09T14:33:36;1.77;;;0.40;;
33104;SDS011;19476;51.448;6.674;2022-09-09T14:36:04;0.65;;;0.40;;
33104;SDS011;19476;51.448;6.674;2022-09-09T14:38:31;0.40;;;0.30;;
33104;SDS011;19476;51.448;6.674;2022-09-09T14:41:04;0.70;;;0.13;;
33104;SDS011;19476;51.448;6.674;2022-09-09T14:43:37;0.55;;;0.20;;
33104;SDS011;19476;51.448;6.674;2022-09-09T14:46:09;1.10;;;0.20;;
33104;SDS011;19476;51.448;6.674;2022-09-09T14:48:39;0.30;;;0.30;;
33104;SDS011;19476;51.448;6.674;2022-09-09T14:51:10;0.70;;;0.32;;
33104;SDS011;19476;51.448;6.674;2022-09-09T14:53:38;1.50;;;0.20;;
33104;SDS011;19476;51.448;6.674;2022-09-09T15:05:14;0.28;;;0.20;;
33104;SDS011;19476;51.448;6.674;2022-09-09T15:07:42;0.95;;;0.30;;
33104;SDS011;19476;51.448;6.674;2022-09-09T15:10:35;0.50;;;0.40;;
33104;SDS011;19476;51.448;6.674;2022-09-09T15:13:02;0.47;;;0.20;;
33104;SDS011;19476;51.448;6.674;2022-09-09T15:15:29;0.43;;;0.20;;
33104;SDS011;19476;51.448;6.674;2022-09-09T15:17:55;0.98;;;0.40;;
33104;SDS011;19476;51.448;6.674;2022-09-09T15:20:22;0.65;;;0.40;;
33104;SDS011;19476;51.448;6.674;2022-09-09T15:22:49;2.10;;;0.40;;
33104;SDS011;19476;51.448;6.674;2022-09-09T15:25:37;0.50;;;0.30;;
33104;SDS011;19476;51.448;6.674;2022-09-09T15:30:52;0.52;;;0.40;;
33104;SDS011;19476;51.448;6.674;2022-09-09T15:36:31;0.88;;;0.30;;
33104;SDS011;19476;51.448;6.674;2022-09-09T15:42:13;1.45;;;0.55;;
33104;SDS011;19476;51.448;6.674;2022-09-09T16:30:48;0.52;;;0.32;;
33104;SDS011;19476;51.448;6.674;2022-09-09T16:33:25;0.43;;;0.30;;
33104;SDS011;19476;51.448;6.674;2022-09-09T16:35:51;3.03;;;0.68;;
33104;SDS011;19476;51.448;6.674;2022-09-09T16:38:17;1.08;;;0.30;;
33104;SDS011;19476;51.448;6.674;2022-09-09T16:43:35;0.93;;;0.45;;
33104;SDS011;19476;51.448;6.674;2022-09-09T16:46:02;1.80;;;0.43;;
33104;SDS011;19476;51.448;6.674;2022-09-09T16:48:33;1.20;;;0.60;;
33104;SDS011;19476;51.448;6.674;2022-09-09T16:51:05;1.63;;;0.60;;
33104;SDS011;19476;51.448;6.674;2022-09-09T16:53:33;1.75;;;0.63;;
33104;SDS011;19476;51.448;6.674;2022-09-09T16:56:16;3.55;;;0.70;;
33104;SDS011;19476;51.448;6.674;2022-09-09T16:59:01;3.17;;;0.80;;
33104;SDS011;19476;51.448;6.674;2022-09-09T17:01:38;1.63;;;0.70;;
33104;SDS011;19476;51.448;6.674;2022-09-09T17:04:11;1.17;;;0.50;;
33104;SDS011;19476;51.448;6.674;2022-09-09T17:06:45;2.55;;;0.70;;
33104;SDS011;19476;51.448;6.674;2022-09-09T17:09:24;3.17;;;0.60;;
33104;SDS011;19476;51.448;6.674;2022-09-09T17:11:54;1.47;;;0.50;;
33104;SDS011;19476;51.448;6.674;2022-09-09T17:14:21;1.67;;;0.70;;
33104;SDS011;19476;51.448;6.674;2022-09-09T17:16:49;1.88;;;0.65;;
33104;SDS011;19476;51.448;6.674;2022-09-09T17:19:15;2.88;;;0.70;;
33104;SDS011;19476;51.448;6.674;2022-09-09T17:21:41;2.35;;;0.65;;
33104;SDS011;19476;51.448;6.674;2022-09-09T17:24:08;1.15;;;0.50;;
33104;SDS011;19476;51.448;6.674;2022-09-09T17:26:56;2.20;;;0.70;;
33104;SDS011;19476;51.448;6.674;2022-09-09T17:32:55;2.15;;;0.70;;
33104;SDS011;19476;51.448;6.674;2022-09-09T18:22:59;2.80;;;0.75;;
33104;SDS011;19476;51.448;6.674;2022-09-09T18:25:25;1.27;;;0.60;;
33104;SDS011;19476;51.448;6.674;2022-09-09T18:27:50;2.50;;;1.08;;
33104;SDS011;19476;51.448;6.674;2022-09-09T18:30:17;3.50;;;0.95;;
33104;SDS011;19476;51.448;6.674;2022-09-09T18:32:44;2.85;;;1.23;;
33104;SDS011;19476;51.448;6.674;2022-09-09T18:35:12;1.95;;;0.98;;
33104;SDS011;19476;51.448;6.674;2022-09-09T18:37:39;2.88;;;1.10;;
33104;SDS011;19476;51.448;6.674;2022-09-09T18:40:05;4.82;;;1.30;;
33104;SDS011;19476;51.448;6.674;2022-09-09T18:42:31;3.17;;;1.10;;
33104;SDS011;19476;51.448;6.674;2022-09-09T18:44:58;4.15;;;1.30;;
33104;SDS011;19476;51.448;6.674;2022-09-09T18:47:24;3.03;;;0.82;;
33104;SDS011;19476;51.448;6.674;2022-09-09T18:49:54;2.35;;;0.90;;
33104;SDS011;19476;51.448;6.674;2022-09-09T18:52:20;3.45;;;0.98;;
33104;SDS011;19476;51.448;6.674;2022-09-09T18:54:47;2.05;;;0.65;;
33104;SDS011;19476;51.448;6.674;2022-09-09T18:57:15;2.17;;;0.60;;
33104;SDS011;19476;51.448;6.674;2022-09-09T18:59:44;1.70;;;0.60;;
33104;SDS011;19476;51.448;6.674;2022-09-09T19:02:14;3.45;;;0.95;;
33104;SDS011;19476;51.448;6.674;2022-09-09T19:04:44;1.20;;;0.60;;
33104;SDS011;19476;51.448;6.674;2022-09-09T19:07:11;3.15;;;0.60;;
33104;SDS011;19476;51.448;6.674;2022-09-09T19:09:38;2.67;;;0.65;;
33104;SDS011;19476;51.448;6.674;2022-09-09T19:12:04;2.50;;;0.88;;
33104;SDS011;19476;51.448;6.674;2022-09-09T19:14:31;2.05;;;0.70;;
33104;SDS011;19476;51.448;6.674;2022-09-09T19:16:58;2.67;;;0.77;;
33104;SDS011;19476;51.448;6.674;2022-09-09T19:19:26;0.82;;;0.47;;
33104;SDS011;19476;51.448;6.674;2022-09-09T19:21:53;1.48;;;0.52;;
33104;SDS011;19476;51.448;6.674;2022-09-09T19:24:22;1.52;;;0.50;;
33104;SDS011;19476;51.448;6.674;2022-09-09T19:26:59;2.38;;;0.60;;
33104;SDS011;19476;51.448;6.674;2022-09-09T19:29:28;0.82;;;0.40;;
33104;SDS011;19476;51.448;6.674;2022-09-09T19:31:57;1.23;;;0.40;;
33104;SDS011;19476;51.448;6.674;2022-09-09T19:34:24;1.38;;;0.20;;
33104;SDS011;19476;51.448;6.674;2022-09-09T19:36:51;1.08;;;0.30;;
33104;SDS011;19476;51.448;6.674;2022-09-09T19:39:17;1.10;;;0.38;;
33104;SDS011;19476;51.448;6.674;2022-09-09T19:41:43;1.30;;;0.40;;
33104;SDS011;19476;51.448;6.674;2022-09-09T19:44:13;0.77;;;0.22;;
33104;SDS011;19476;51.448;6.674;2022-09-09T19:46:41;1.55;;;0.40;;
33104;SDS011;19476;51.448;6.674;2022-09-09T19:49:09;0.63;;;0.20;;
33104;SDS011;19476;51.448;6.674;2022-09-09T19:51:35;0.98;;;0.30;;
33104;SDS011;19476;51.448;6.674;2022-09-09T19:54:05;1.50;;;0.30;;
33104;SDS011;19476;51.448;6.674;2022-09-09T19:56:33;0.25;;;0.15;;
33104;SDS011;19476;51.448;6.674;2022-09-09T19:59:01;0.60;;;0.30;;
33104;SDS011;19476;51.448;6.674;2022-09-09T20:01:35;1.10;;;0.50;;
33104;SDS011;19476;51.448;6.674;2022-09-09T20:04:03;1.02;;;0.50;;
33104;SDS011;19476;51.448;6.674;2022-09-09T20:06:31;1.30;;;0.30;;
33104;SDS011;19476;51.448;6.674;2022-09-09T20:08:59;0.83;;;0.20;;
33104;SDS011;19476;51.448;6.674;2022-09-09T20:11:26;3.20;;;0.70;;
33104;SDS011;19476;51.448;6.674;2022-09-09T20:13:52;1.13;;;0.50;;
33104;SDS011;19476;51.448;6.674;2022-09-09T20:16:28;1.30;;;0.50;;
33104;SDS011;19476;51.448;6.674;2022-09-09T20:18:57;1.30;;;0.50;;
33104;SDS011;19476;51.448;6.674;2022-09-09T20:21:29;1.85;;;0.65;;
33104;SDS011;19476;51.448;6.674;2022-09-09T20:23:58;0.98;;;0.55;;
33104;SDS011;19476;51.448;6.674;2022-09-09T20:26:25;1.27;;;0.55;;
33104;SDS011;19476;51.448;6.674;2022-09-09T20:28:53;5.95;;;1.10;;
33104;SDS011;19476;51.448;6.674;2022-09-09T20:31:27;1.27;;;0.70;;
33104;SDS011;19476;51.448;6.674;2022-09-09T20:33:54;1.90;;;0.68;;
33104;SDS011;19476;51.448;6.674;2022-09-09T20:36:23;1.10;;;0.70;;
33104;SDS011;19476;51.448;6.674;2022-09-09T20:39:09;1.33;;;0.57;;
33104;SDS011;19476;51.448;6.674;2022-09-09T20:41:37;1.70;;;0.55;;
33104;SDS011;19476;51.448;6.674;2022-09-09T20:44:05;2.13;;;0.60;;
33104;SDS011;19476;51.448;6.674;2022-09-09T20:46:37;1.13;;;0.63;;
33104;SDS011;19476;51.448;6.674;2022-09-09T20:49:05;3.22;;;0.70;;
33104;SDS011;19476;51.448;6.674;2022-09-09T20:51:33;1.30;;;0.50;;
33104;SDS011;19476;51.448;6.674;2022-09-09T20:54:01;1.48;;;0.65;;
33104;SDS011;19476;51.448;6.674;2022-09-09T20:56:33;0.75;;;0.50;;
33104;SDS011;19476;51.448;6.674;2022-09-09T20:59:04;1.20;;;0.60;;
33104;SDS011;19476;51.448;6.674;2022-09-09T21:01:31;3.00;;;0.60;;
33104;SDS011;19476;51.448;6.674;2022-09-09T21:03:58;1.70;;;0.65;;
33104;SDS011;19476;51.448;6.674;2022-09-09T21:06:24;1.30;;;0.60;;
33104;SDS011;19476;51.448;6.674;2022-09-09T21:08:50;1.23;;;0.65;;
33104;SDS011;19476;51.448;6.674;2022-09-09T21:11:17;2.17;;;0.77;;
33104;SDS011;19476;51.448;6.674;2022-09-09T21:13:42;2.17;;;0.63;;
33104;SDS011;19476;51.448;6.674;2022-09-09T21:16:10;2.17;;;0.65;;
33104;SDS011;19476;51.448;6.674;2022-09-09T21:18:38;3.83;;;0.55;;
33104;SDS011;19476;51.448;6.674;2022-09-09T21:21:05;3.00;;;0.80;;
33104;SDS011;19476;51.448;6.674;2022-09-09T21:23:32;0.85;;;0.47;;
33104;SDS011;19476;51.448;6.674;2022-09-09T21:25:59;1.58;;;0.60;;
33104;SDS011;19476;51.448;6.674;2022-09-09T21:28:25;2.53;;;0.98;;
33104;SDS011;19476;51.448;6.674;2022-09-09T21:30:52;3.15;;;0.65;;
33104;SDS011;19476;51.448;6.674;2022-09-09T21:33:20;3.53;;;0.98;;
33104;SDS011;19476;51.448;6.674;2022-09-09T21:35:47;3.03;;;0.60;;
33104;SDS011;19476;51.448;6.674;2022-09-09T21:38:15;2.20;;;0.65;;
33104;SDS011;19476;51.448;6.674;2022-09-09T21:40:43;1.83;;;0.63;;
33104;SDS011;19476;51.448;6.674;2022-09-09T21:43:10;1.85;;;0.50;;
33104;SDS011;19476;51.448;6.674;2022-09-09T21:45:38;1.63;;;0.70;;
33104;SDS011;19476;51.448;6.674;2022-09-09T21:48:05;0.88;;;0.47;;
33104;SDS011;19476;51.448;6.674;2022-09-09T21:50:40;2.08;;;0.70;;
33104;SDS011;19476;51.448;6.674;2022-09-09T21:53:08;1.27;;;0.60;;
33104;SDS011;19476;51.448;6.674;2022-09-09T21:55:38;2.70;;;0.70;;
33104;SDS011;19476;51.448;6.674;2022-09-09T21:58:09;2.50;;;0.70;;
33104;SDS011;19476;51.448;6.674;2022-09-09T22:00:35;3.72;;;1.23;;
33104;SDS011;19476;51.448;6.674;2022-09-09T22:03:06;1.55;;;0.63;;
33104;SDS011;19476;51.448;6.674;2022-09-09T22:05:33;1.85;;;0.70;;
33104;SDS011;19476;51.448;6.674;2022-09-09T22:08:03;2.97;;;0.60;;
33104;SDS011;19476;51.448;6.674;2022-09-09T22:10:29;2.33;;;0.65;;
33104;SDS011;19476;51.448;6.674;2022-09-09T22:12:54;1.35;;;0.80;;
33104;SDS011;19476;51.448;6.674;2022-09-09T22:15:22;2.13;;;0.77;;
33104;SDS011;19476;51.448;6.674;2022-09-09T22:17:47;2.30;;;0.80;;
33104;SDS011;19476;51.448;6.674;2022-09-09T22:20:13;1.33;;;0.60;;
33104;SDS011;19476;51.448;6.674;2022-09-09T22:22:40;5.40;;;0.80;;
33104;SDS011;19476;51.448;6.674;2022-09-09T22:25:06;3.00;;;0.77;;
33104;SDS011;19476;51.448;6.674;2022-09-09T22:27:32;2.95;;;0.82;;
33104;SDS011;19476;51.448;6.674;2022-09-09T22:29:58;2.47;;;0.85;;
33104;SDS011;19476;51.448;6.674;2022-09-09T22:32:24;2.40;;;0.68;;
33104;SDS011;19476;51.448;6.674;2022-09-09T22:34:50;4.00;;;1.08;;
33104;SDS011;19476;51.448;6.674;2022-09-09T22:37:16;4.20;;;1.10;;
33104;SDS011;19476;51.448;6.674;2022-09-09T22:39:42;2.60;;;0.77;;
33104;SDS011;19476;51.448;6.674;2022-09-09T22:42:08;2.40;;;0.82;;
33104;SDS011;19476;51.448;6.674;2022-09-09T22:44:34;2.75;;;0.73;;
33104;SDS011;19476;51.448;6.674;2022-09-09T22:47:00;1.92;;;0.68;;
33104;SDS011;19476;51.448;6.674;2022-09-09T22:49:26;4.32;;;0.90;;
33104;SDS011;19476;51.448;6.674;2022-09-09T22:51:52;3.08;;;0.88;;
33104;SDS011;19476;51.448;6.674;2022-09-09T22:54:18;1.95;;;0.80;;
33104;SDS011;19476;51.448;6.674;2022-09-09T22:56:47;2.45;;;0.77;;
33104;SDS011;19476;51.448;6.674;2022-09-09T22:59:16;1.53;;;0.70;;
33104;SDS011;19476;51.448;6.674;2022-09-09T23:01:43;2.97;;;0.80;;
33104;SDS011;19476;51.448;6.674;2022-09-09T23:04:09;3.05;;;0.95;;
33104;SDS011;19476;51.448;6.674;2022-09-09T23:06:36;2.95;;;0.85;;
33104;SDS011;19476;51.448;6.674;2022-09-09T23:09:04;1.75;;;0.70;;
33104;SDS011;19476;51.448;6.674;2022-09-09T23:11:31;1.42;;;0.60;;
33104;SDS011;19476;51.448;6.674;2022-09-09T23:13:59;1.40;;;0.80;;
33104;SDS011;19476;51.448;6.674;2022-09-09T23:16:27;2.15;;;0.80;;
33104;SDS011;19476;51.448;6.674;2022-09-09T23:18:57;1.75;;;0.63;;
33104;SDS011;19476;51.448;6.674;2022-09-09T23:21:26;2.08;;;0.50;;
33104;SDS011;19476;51.448;6.674;2022-09-09T23:23:54;2.80;;;0.70;;
33104;SDS011;19476;51.448;6.674;2022-09-09T23:26:21;2.88;;;0.63;;
33104;SDS011;19476;51.448;6.674;2022-09-09T23:28:49;2.42;;;0.70;;
33104;SDS011;19476;51.448;6.674;2022-09-09T23:31:18;2.83;;;0.43;;
33104;SDS011;19476;51.448;6.674;2022-09-09T23:33:46;1.23;;;0.40;;
33104;SDS011;19476;51.448;6.674;2022-09-09T23:36:16;2.17;;;0.47;;
33104;SDS011;19476;51.448;6.674;2022-09-09T23:38:43;1.55;;;0.57;;
33104;SDS011;19476;51.448;6.674;2022-09-09T23:41:10;2.17;;;0.60;;
33104;SDS011;19476;51.448;6.674;2022-09-09T23:43:39;2.60;;;0.60;;
33104;SDS011;19476;51.448;6.674;2022-09-09T23:46:05;1.27;;;0.88;;
33104;SDS011;19476;51.448;6.674;2022-09-09T23:48:32;2.00;;;0.73;;
33104;SDS011;19476;51.448;6.674;2022-09-09T23:50:59;1.48;;;0.45;;
33104;SDS011;19476;51.448;6.674;2022-09-09T23:53:25;2.70;;;0.70;;
33104;SDS011;19476;51.448;6.674;2022-09-09T23:55:51;0.77;;;0.40;;
33104;SDS011;19476;51.448;6.674;2022-09-09T23:58:18;2.45;;;0.60;;
